Terminal Aerodrome Forecast
Issued by NWS North Platte, NE

Home | Current Version | Previous Version | Text Only | Print | Product List | Glossary Off
Versions: 1 2 3 4 5 6 7 8 9 10 11 12 13 14 15

000
FTUS43 KLBF 272349 RRA
TAFVTN
TAF
KVTN 272349Z 2800/2824 15016G23KT P6SM BKN200
      TEMPO 2802/2806 VRB35G45KT 2SM TSRA BKN050CB
     FM280600 30017G25KT P6SM SCT120 SCT250=

USA.gov is the U.S. government's official web portal to all federal, state and local government web resources and services.